Hampton, United Kingdom
Current Conditions -  °F | °C
As of 8:50 PM on Sunday 21 Dec 2014 (Local Time) from EGLL Reporting Station
Broken Clouds Broken Clouds  
Wind Chill: 54°   Ceiling: 1400
Heat Index: 54°   Visibility: 6mi
Dew Point: 48°   Wind: 18mph
Humidity: 82%   Direction: 230°SW
Pressure: 30.18"   Gusts: NA
Location:  51.43°N, 0.37°W
Report Text: EGLL 212050Z 23016KT 9999 BKN014 12/09 Q1022 NOSIG
Loading
Personal Weather Stations






























Interactive Weather Map New forecast layout! Learn more

10-Day Weather Forecast

Advertisements
Track Severe Weather on mobile